createdAt,value
2023-05-20T00:00:32.329Z,58.93
2023-05-20T00:03:01.382Z,59.40
2023-05-20T00:05:30.375Z,59.56
2023-05-20T00:08:00.617Z,59.65
2023-05-20T00:10:27.585Z,59.87
2023-05-20T00:12:56.649Z,60.27
2023-05-20T00:15:23.407Z,60.30
2023-05-20T00:17:52.402Z,60.48
2023-05-20T00:20:22.236Z,60.80
2023-05-20T00:22:51.091Z,60.83
2023-05-20T00:25:17.757Z,61.11
2023-05-20T00:27:47.352Z,61.08
2023-05-20T00:30:16.560Z,61.33
2023-05-20T00:32:43.177Z,61.67
2023-05-20T00:35:13.112Z,61.93
2023-05-20T00:37:39.823Z,61.98
2023-05-20T00:40:07.401Z,62.34
2023-05-20T00:42:34.054Z,62.49
2023-05-20T00:45:03.153Z,62.71
2023-05-20T00:47:34.482Z,62.69
2023-05-20T00:50:04.044Z,62.59
2023-05-20T00:52:32.784Z,62.54
2023-05-20T00:55:00.034Z,62.79
2023-05-20T00:57:28.910Z,62.83
2023-05-20T01:00:00.468Z,62.99
2023-05-20T01:02:27.624Z,63.19
2023-05-20T01:04:56.673Z,63.13
2023-05-20T01:07:23.920Z,63.50
2023-05-20T01:09:54.496Z,63.67
2023-05-20T01:12:30.615Z,63.94
2023-05-20T01:15:07.464Z,63.80
2023-05-20T01:17:49.962Z,64.34
2023-05-20T01:20:18.945Z,64.67
2023-05-20T01:22:57.033Z,64.91
2023-05-20T01:25:27.573Z,64.80
2023-05-20T01:28:03.577Z,65.03
2023-05-20T01:30:37.213Z,65.43
2023-05-20T01:33:11.332Z,65.72
2023-05-20T01:35:41.481Z,65.94
2023-05-20T01:38:08.630Z,65.72
2023-05-20T01:40:36.091Z,65.75
2023-05-20T01:43:03.518Z,66.03
2023-05-20T01:45:30.198Z,66.72
2023-05-20T01:47:59.323Z,66.52
2023-05-20T01:50:26.861Z,66.69
2023-05-20T01:52:56.026Z,66.89
2023-05-20T01:55:25.042Z,66.79
2023-05-20T01:57:51.786Z,67.14
2023-05-20T02:00:18.368Z,66.97
2023-05-20T02:02:45.123Z,67.40
2023-05-20T02:05:12.153Z,67.37
2023-05-20T02:07:38.918Z,67.53
2023-05-20T02:10:06.396Z,67.64
2023-05-20T02:12:33.045Z,67.57
2023-05-20T02:14:59.643Z,67.59
2023-05-20T02:17:26.892Z,68.11
2023-05-20T02:19:55.845Z,68.13
2023-05-20T02:22:22.456Z,68.65
2023-05-20T02:24:49.099Z,68.85
2023-05-20T02:27:15.715Z,69.09
2023-05-20T02:29:44.287Z,69.12
2023-05-20T02:32:11.346Z,69.09
2023-05-20T02:34:37.986Z,68.87
2023-05-20T02:37:05.251Z,69.36
2023-05-20T02:39:32.078Z,68.94
2023-05-20T02:42:01.249Z,69.20
2023-05-20T02:44:30.283Z,69.27
2023-05-20T02:47:01.631Z,68.94
2023-05-20T02:49:28.192Z,69.43
2023-05-20T02:51:59.397Z,69.82
2023-05-20T02:54:28.266Z,69.71
2023-05-20T02:56:54.875Z,69.86
2023-05-20T02:59:21.949Z,69.76
2023-05-20T03:01:51.055Z,70.36
2023-05-20T03:04:19.362Z,70.23
2023-05-20T03:06:46.572Z,70.18
2023-05-20T03:09:14.280Z,70.33
2023-05-20T03:11:41.037Z,70.35
2023-05-20T03:14:07.672Z,70.64
2023-05-20T03:16:35.475Z,70.85
2023-05-20T03:19:02.693Z,70.64
2023-05-20T03:21:32.553Z,71.12
2023-05-20T03:23:59.223Z,70.97
2023-05-20T03:26:26.030Z,71.07
2023-05-20T03:28:57.342Z,71.45
2023-05-20T03:31:24.061Z,71.32
2023-05-20T03:33:51.064Z,71.21
2023-05-20T03:36:17.759Z,71.44
2023-05-20T03:38:46.787Z,71.21
2023-05-20T03:41:15.737Z,70.97
2023-05-20T03:43:42.449Z,71.34
2023-05-20T03:46:09.133Z,71.42
2023-05-20T03:48:35.740Z,71.99
2023-05-20T03:51:04.905Z,71.89
2023-05-20T03:53:31.579Z,72.24
2023-05-20T03:56:01.680Z,72.16
2023-05-20T03:58:31.343Z,71.88
2023-05-20T04:00:58.391Z,72.22
2023-05-20T04:03:25.179Z,72.33
2023-05-20T04:05:52.133Z,72.00
2023-05-20T04:08:18.961Z,72.39
2023-05-20T04:10:46.474Z,72.03
2023-05-20T04:13:16.508Z,71.87
2023-05-20T04:15:43.186Z,71.68
2023-05-20T04:18:10.449Z,71.78
2023-05-20T04:20:37.108Z,71.57
2023-05-20T04:23:03.714Z,71.51
2023-05-20T04:25:30.398Z,71.23
2023-05-20T04:27:57.906Z,71.15
2023-05-20T04:30:27.298Z,71.29
2023-05-20T04:32:54.834Z,71.14
2023-05-20T04:35:21.651Z,71.17
2023-05-20T04:37:48.701Z,70.96
2023-05-20T04:40:15.445Z,70.84
2023-05-20T04:42:42.113Z,71.03
2023-05-20T04:45:09.207Z,70.70
2023-05-20T04:47:39.004Z,70.08
2023-05-20T04:50:11.293Z,70.03
2023-05-20T04:52:47.189Z,69.23
2023-05-20T04:55:14.167Z,65.06
2023-05-20T04:57:43.868Z,60.94
2023-05-20T05:00:12.670Z,58.51
2023-05-20T05:02:39.623Z,55.60
2023-05-20T05:05:06.879Z,54.35
2023-05-20T05:07:33.597Z,53.21
2023-05-20T05:10:00.203Z,51.34
2023-05-20T05:12:31.697Z,50.81
2023-05-20T05:14:58.881Z,49.07
2023-05-20T05:17:28.860Z,48.54
2023-05-20T05:19:55.943Z,48.77
2023-05-20T05:22:22.651Z,48.88
2023-05-20T05:24:49.249Z,48.04
2023-05-20T05:27:15.998Z,47.45
2023-05-20T05:29:42.683Z,47.07
2023-05-20T05:32:14.403Z,45.88
2023-05-20T05:34:43.470Z,45.46
2023-05-20T05:37:10.084Z,45.65
2023-05-20T05:39:37.879Z,45.51
2023-05-20T05:42:05.116Z,45.03
2023-05-20T05:44:31.967Z,44.14
2023-05-20T05:46:58.683Z,42.94
2023-05-20T05:49:27.883Z,42.84
2023-05-20T05:51:54.566Z,43.66
2023-05-20T05:54:21.404Z,43.16
2023-05-20T05:56:50.383Z,43.35
2023-05-20T05:59:17.402Z,42.11
2023-05-20T06:01:44.053Z,41.99
2023-05-20T06:04:10.935Z,41.34
2023-05-20T06:06:40.993Z,40.82
2023-05-20T06:09:07.847Z,40.41
2023-05-20T06:11:34.547Z,40.20
2023-05-20T06:14:02.095Z,40.10
2023-05-20T06:16:28.753Z,39.29
2023-05-20T06:18:59.699Z,39.62
2023-05-20T06:21:28.478Z,38.90
2023-05-20T06:23:55.147Z,37.88
2023-05-20T06:26:22.926Z,37.82
2023-05-20T06:28:52.089Z,37.04
2023-05-20T06:31:21.452Z,37.17
2023-05-20T06:33:48.575Z,37.27
2023-05-20T06:36:15.214Z,36.65
2023-05-20T06:38:41.805Z,35.73
2023-05-20T06:41:08.692Z,36.51
2023-05-20T06:43:37.752Z,36.37
2023-05-20T06:46:04.870Z,36.11
2023-05-20T06:48:32.075Z,34.78
2023-05-20T06:50:58.748Z,34.57
2023-05-20T06:53:28.020Z,34.14
2023-05-20T06:56:00.617Z,33.93
2023-05-20T06:58:28.020Z,33.27
2023-05-20T07:00:55.026Z,34.22
2023-05-20T07:03:21.799Z,34.33
2023-05-20T07:05:53.259Z,34.21
2023-05-20T07:08:22.841Z,34.90
2023-05-20T07:10:49.421Z,34.92
2023-05-20T07:13:23.972Z,34.29
2023-05-20T07:15:50.774Z,33.41
2023-05-20T07:18:17.549Z,32.68
2023-05-20T07:20:45.000Z,32.66
2023-05-20T07:23:12.073Z,32.74
2023-05-20T07:25:39.903Z,33.29
2023-05-20T07:28:09.320Z,32.90
2023-05-20T07:30:36.084Z,33.69
2023-05-20T07:33:05.308Z,32.48
2023-05-20T07:35:34.561Z,33.10
2023-05-20T07:38:01.396Z,32.93
2023-05-20T07:40:29.150Z,33.25
2023-05-20T07:42:55.805Z,32.62
2023-05-20T07:45:22.526Z,32.61
2023-05-20T07:47:49.218Z,32.10
2023-05-20T07:50:18.094Z,32.23
2023-05-20T07:52:55.865Z,32.24
2023-05-20T07:55:23.818Z,32.08
2023-05-20T07:57:50.761Z,32.03
2023-05-20T08:00:17.580Z,31.77
2023-05-20T08:02:44.544Z,31.32
2023-05-20T08:05:11.687Z,32.22
2023-05-20T08:07:38.264Z,32.85
2023-05-20T08:10:05.263Z,33.10
2023-05-20T08:12:34.366Z,32.86
2023-05-20T08:15:00.951Z,33.50
2023-05-20T08:17:27.620Z,33.36
2023-05-20T08:19:56.689Z,32.42
2023-05-20T08:22:26.552Z,32.69
2023-05-20T08:24:53.339Z,33.08
2023-05-20T08:27:20.277Z,32.28
2023-05-20T08:29:46.988Z,32.76
2023-05-20T08:32:13.655Z,32.82
2023-05-20T08:34:40.613Z,32.68
2023-05-20T08:37:07.533Z,32.70
2023-05-20T08:39:34.225Z,33.36
2023-05-20T08:42:01.240Z,33.60
2023-05-20T08:44:28.405Z,33.23
2023-05-20T08:46:57.013Z,33.20
2023-05-20T08:49:23.743Z,33.40
2023-05-20T08:51:53.121Z,33.23
2023-05-20T08:54:21.666Z,32.47
2023-05-20T08:56:48.438Z,32.81
2023-05-20T08:59:15.383Z,33.12
2023-05-20T09:01:45.618Z,33.28
2023-05-20T09:04:14.574Z,33.56
2023-05-20T09:06:45.381Z,31.51
2023-05-20T09:09:13.344Z,33.48
2023-05-20T09:11:41.540Z,34.56
2023-05-20T09:14:08.813Z,34.21
2023-05-20T09:16:36.031Z,34.65
2023-05-20T09:19:06.385Z,34.87
2023-05-20T09:21:33.210Z,35.07
2023-05-20T09:24:02.756Z,35.14
2023-05-20T09:26:33.003Z,35.67
2023-05-20T09:29:03.093Z,35.55
2023-05-20T09:31:35.788Z,35.75
2023-05-20T09:34:03.705Z,37.05
2023-05-20T09:36:32.016Z,37.08
2023-05-20T09:39:03.374Z,37.72
2023-05-20T09:41:45.135Z,38.24
2023-05-20T09:44:12.956Z,38.77
2023-05-20T09:46:46.933Z,39.05
2023-05-20T09:49:17.533Z,39.06
2023-05-20T09:51:45.477Z,39.38
2023-05-20T09:54:13.905Z,39.78
2023-05-20T09:56:44.229Z,40.35
2023-05-20T09:59:11.807Z,40.66
2023-05-20T10:01:38.459Z,41.36
2023-05-20T10:04:07.940Z,41.43
2023-05-20T10:06:43.690Z,40.65
2023-05-20T10:09:36.645Z,40.35
2023-05-20T10:12:28.450Z,40.56
2023-05-20T10:15:24.923Z,40.85
2023-05-20T10:18:10.118Z,40.54
2023-05-20T10:20:50.923Z,40.73
2023-05-20T10:23:27.826Z,40.43
2023-05-20T10:25:57.660Z,40.70
2023-05-20T10:28:40.464Z,40.20
2023-05-20T10:31:23.470Z,40.08
2023-05-20T10:33:53.723Z,40.55
2023-05-20T10:36:28.058Z,40.55
2023-05-20T10:38:59.489Z,40.28
2023-05-20T10:41:28.370Z,40.23
2023-05-20T10:44:06.286Z,40.77
2023-05-20T10:46:48.633Z,40.75
2023-05-20T10:49:27.149Z,40.71
2023-05-20T10:51:55.268Z,40.63
2023-05-20T10:54:23.649Z,40.20
2023-05-20T10:56:54.844Z,39.99
2023-05-20T10:59:22.642Z,39.93
2023-05-20T11:01:50.076Z,39.99
2023-05-20T11:04:19.944Z,39.84
2023-05-20T11:06:54.617Z,39.85
2023-05-20T11:09:22.159Z,40.21
2023-05-20T11:11:55.850Z,39.69
2023-05-20T11:14:22.675Z,39.60
2023-05-20T11:16:54.372Z,39.44
2023-05-20T11:19:24.585Z,39.51
2023-05-20T11:21:51.721Z,40.07
2023-05-20T11:24:27.235Z,40.13
2023-05-20T11:26:58.154Z,39.31
2023-05-20T11:29:29.279Z,39.21
2023-05-20T11:32:00.431Z,38.93
2023-05-20T11:34:36.577Z,39.23
2023-05-20T11:37:08.318Z,39.21
2023-05-20T11:39:35.096Z,39.87
2023-05-20T11:42:01.877Z,39.48
2023-05-20T11:44:28.506Z,39.83
2023-05-20T11:47:00.765Z,39.69
2023-05-20T11:49:28.223Z,39.19
2023-05-20T11:51:55.526Z,38.66
2023-05-20T11:54:24.180Z,38.25
2023-05-20T11:56:50.958Z,38.66
2023-05-20T11:59:17.626Z,39.04
2023-05-20T12:01:44.491Z,38.34
2023-05-20T12:04:13.417Z,38.14
2023-05-20T12:06:40.315Z,37.70
2023-05-20T12:09:10.055Z,37.93
2023-05-20T12:11:39.766Z,37.92
2023-05-20T12:14:07.000Z,38.25
2023-05-20T12:16:38.128Z,37.76
2023-05-20T12:19:05.526Z,38.12
2023-05-20T12:21:34.983Z,37.97
2023-05-20T12:24:06.883Z,37.73
2023-05-20T12:26:35.281Z,37.68
2023-05-20T12:29:01.924Z,37.82
2023-05-20T12:31:28.512Z,37.59
2023-05-20T12:33:57.820Z,37.63
2023-05-20T12:36:24.621Z,38.08
2023-05-20T12:38:51.407Z,37.74
2023-05-20T12:41:18.390Z,38.40
2023-05-20T12:43:45.026Z,38.37
2023-05-20T12:46:11.686Z,38.34
2023-05-20T12:48:43.155Z,38.46
2023-05-20T12:51:09.790Z,38.68
2023-05-20T12:53:36.571Z,38.75
2023-05-20T12:56:04.592Z,38.49
2023-05-20T12:58:32.610Z,38.65
2023-05-20T13:00:59.225Z,38.68
2023-05-20T13:03:26.033Z,38.63
2023-05-20T13:05:52.706Z,38.42
2023-05-20T13:08:19.638Z,38.62
2023-05-20T13:10:46.289Z,38.94
2023-05-20T13:13:21.405Z,38.62
2023-05-20T13:15:51.774Z,38.99
2023-05-20T13:18:19.265Z,38.95
2023-05-20T13:20:46.263Z,39.51
2023-05-20T13:23:12.994Z,39.29
2023-05-20T13:25:39.641Z,39.30
2023-05-20T13:28:06.603Z,39.12
2023-05-20T13:30:33.676Z,39.45
2023-05-20T13:33:00.533Z,38.96
2023-05-20T13:35:27.371Z,38.94
2023-05-20T13:37:54.044Z,38.98
2023-05-20T13:40:20.795Z,39.52
2023-05-20T13:42:47.436Z,39.78
2023-05-20T13:45:14.138Z,39.60
2023-05-20T13:47:40.794Z,39.50
2023-05-20T13:50:08.253Z,39.77
2023-05-20T13:52:35.278Z,38.91
2023-05-20T13:55:02.058Z,39.40
2023-05-20T13:57:28.840Z,39.23
2023-05-20T13:59:57.775Z,39.44
2023-05-20T14:02:24.587Z,38.83
2023-05-20T14:04:51.375Z,39.28
2023-05-20T14:07:18.102Z,39.23
2023-05-20T14:09:45.946Z,39.44
2023-05-20T14:12:12.916Z,39.35
2023-05-20T14:14:39.551Z,39.03
2023-05-20T14:17:06.185Z,39.48
2023-05-20T14:19:36.425Z,39.47
2023-05-20T14:22:03.395Z,38.83
2023-05-20T14:24:30.026Z,39.06
2023-05-20T14:26:56.826Z,39.29
2023-05-20T14:29:23.582Z,39.20
2023-05-20T14:31:50.250Z,39.52
2023-05-20T14:34:17.054Z,39.09
2023-05-20T14:36:44.563Z,39.43
2023-05-20T14:39:13.541Z,39.21
2023-05-20T14:41:42.539Z,39.44
2023-05-20T14:44:09.235Z,39.81
2023-05-20T14:46:36.131Z,39.78
2023-05-20T14:49:02.827Z,39.84
2023-05-20T14:51:29.486Z,39.93
2023-05-20T14:53:58.856Z,39.91
2023-05-20T14:56:27.915Z,39.81
2023-05-20T14:58:57.062Z,39.72
2023-05-20T15:01:23.763Z,40.15
2023-05-20T15:03:53.499Z,39.83
2023-05-20T15:06:20.330Z,39.94
2023-05-20T15:08:47.597Z,38.93
2023-05-20T15:11:16.532Z,39.85
2023-05-20T15:13:44.238Z,39.90
2023-05-20T15:16:11.135Z,39.86
2023-05-20T15:18:38.024Z,39.66
2023-05-20T15:21:05.876Z,40.14
2023-05-20T15:23:34.717Z,40.27
2023-05-20T15:26:03.658Z,40.40
2023-05-20T15:28:30.244Z,40.05
2023-05-20T15:30:57.221Z,39.92
2023-05-20T15:33:23.907Z,40.23
2023-05-20T15:35:50.624Z,40.29
2023-05-20T15:38:19.681Z,40.16
2023-05-20T15:40:47.456Z,40.25
2023-05-20T15:43:14.107Z,40.25
2023-05-20T15:45:40.839Z,40.37
2023-05-20T15:48:10.150Z,40.50
2023-05-20T15:50:37.423Z,40.39
2023-05-20T15:53:08.185Z,40.64
2023-05-20T15:55:35.850Z,40.85
2023-05-20T15:58:03.010Z,40.65
2023-05-20T16:00:29.943Z,40.72
2023-05-20T16:02:56.796Z,40.80
2023-05-20T16:05:26.881Z,40.41
2023-05-20T16:07:53.577Z,40.36
2023-05-20T16:10:20.594Z,40.66
2023-05-20T16:12:47.613Z,40.93
2023-05-20T16:15:14.334Z,40.92
2023-05-20T16:17:44.677Z,41.29
2023-05-20T16:20:12.534Z,41.30
2023-05-20T16:22:39.230Z,41.23
2023-05-20T16:25:06.403Z,41.19
2023-05-20T16:27:33.208Z,41.59
2023-05-20T16:30:00.280Z,41.37
2023-05-20T16:32:27.246Z,41.38
2023-05-20T16:34:54.857Z,41.00
2023-05-20T16:37:21.530Z,41.18
2023-05-20T16:39:48.323Z,41.59
2023-05-20T16:42:15.250Z,41.66
2023-05-20T16:44:41.983Z,41.68
2023-05-20T16:47:11.414Z,41.62
2023-05-20T16:49:38.090Z,41.67
2023-05-20T16:52:05.235Z,41.77
2023-05-20T16:54:32.783Z,41.35
2023-05-20T16:56:59.424Z,41.22
2023-05-20T16:59:28.620Z,41.85
2023-05-20T17:01:55.336Z,42.25
2023-05-20T17:04:22.293Z,42.21
2023-05-20T17:06:50.309Z,42.00
2023-05-20T17:09:17.134Z,41.97
2023-05-20T17:11:44.452Z,42.06
2023-05-20T17:14:11.237Z,42.50
2023-05-20T17:16:37.999Z,42.11
2023-05-20T17:19:06.964Z,42.30
2023-05-20T17:21:34.744Z,41.79
2023-05-20T17:24:05.044Z,42.00
2023-05-20T17:26:35.074Z,42.24
2023-05-20T17:29:03.979Z,42.17
2023-05-20T17:31:30.646Z,42.01
2023-05-20T17:33:57.383Z,41.87
2023-05-20T17:36:24.222Z,42.22
2023-05-20T17:38:51.534Z,42.25
2023-05-20T17:41:19.076Z,42.19
2023-05-20T17:43:46.233Z,42.26
2023-05-20T17:46:13.547Z,42.84
2023-05-20T17:48:45.890Z,42.62
2023-05-20T17:51:13.386Z,42.44
2023-05-20T17:53:39.950Z,43.08
2023-05-20T17:56:06.847Z,43.33
2023-05-20T17:58:33.870Z,43.45
2023-05-20T18:01:00.563Z,43.17
2023-05-20T18:03:27.910Z,43.13
2023-05-20T18:05:56.383Z,43.37
2023-05-20T18:08:25.439Z,43.74
2023-05-20T18:10:53.525Z,43.96
2023-05-20T18:13:22.726Z,44.13
2023-05-20T18:15:49.378Z,44.28
2023-05-20T18:18:16.094Z,44.52
2023-05-20T18:20:45.024Z,44.96
2023-05-20T18:23:14.029Z,44.34
2023-05-20T18:25:42.561Z,43.63
2023-05-20T18:28:09.813Z,43.59
2023-05-20T18:30:36.907Z,43.17
2023-05-20T18:33:03.861Z,43.85
2023-05-20T18:35:31.120Z,43.86
2023-05-20T18:37:57.968Z,44.50
2023-05-20T18:40:25.367Z,45.00
2023-05-20T18:42:52.011Z,45.10
2023-05-20T18:45:21.948Z,44.97
2023-05-20T18:47:48.954Z,44.93
2023-05-20T18:50:16.214Z,45.04
2023-05-20T18:52:42.930Z,45.59
2023-05-20T18:55:09.793Z,45.90
2023-05-20T18:57:36.382Z,46.23
2023-05-20T19:00:04.723Z,46.50
2023-05-20T19:02:31.503Z,46.63
2023-05-20T19:05:00.199Z,46.80
2023-05-20T19:07:29.110Z,46.98
2023-05-20T19:09:56.957Z,46.95
2023-05-20T19:12:25.933Z,47.26
2023-05-20T19:14:55.031Z,47.36
2023-05-20T19:17:21.908Z,47.45
2023-05-20T19:19:48.945Z,47.48
2023-05-20T19:22:17.832Z,47.72
2023-05-20T19:24:44.676Z,47.98
2023-05-20T19:27:11.398Z,48.44
2023-05-20T19:29:38.102Z,48.61
2023-05-20T19:32:05.021Z,48.61
2023-05-20T19:34:31.713Z,49.10
2023-05-20T19:36:58.533Z,49.23
2023-05-20T19:39:25.667Z,49.33
2023-05-20T19:41:53.487Z,49.28
2023-05-20T19:44:20.168Z,49.25
2023-05-20T19:46:47.849Z,49.65
2023-05-20T19:49:14.719Z,49.66
2023-05-20T19:51:41.817Z,50.03
2023-05-20T19:54:10.878Z,50.16
2023-05-20T19:56:40.105Z,50.24
2023-05-20T19:59:09.390Z,50.55
2023-05-20T20:01:36.404Z,50.69
2023-05-20T20:04:03.605Z,50.54
2023-05-20T20:06:30.483Z,50.74
2023-05-20T20:08:57.610Z,50.85
2023-05-20T20:11:24.673Z,50.87
2023-05-20T20:13:51.673Z,50.86
2023-05-20T20:16:18.494Z,51.01
2023-05-20T20:18:45.340Z,51.01
2023-05-20T20:21:15.171Z,51.21
2023-05-20T20:23:43.454Z,51.42
2023-05-20T20:26:13.837Z,51.19
2023-05-20T20:28:40.750Z,51.42
2023-05-20T20:31:07.652Z,51.39
2023-05-20T20:33:34.563Z,51.51
2023-05-20T20:36:02.562Z,51.52
2023-05-20T20:38:29.404Z,51.40
2023-05-20T20:40:56.456Z,51.41
2023-05-20T20:43:28.799Z,51.61
2023-05-20T20:45:56.978Z,51.48
2023-05-20T20:48:27.285Z,51.63
2023-05-20T20:50:54.578Z,51.57
2023-05-20T20:53:21.970Z,51.66
2023-05-20T20:55:51.236Z,51.80
2023-05-20T20:58:18.362Z,51.86
2023-05-20T21:00:48.889Z,52.30
2023-05-20T21:03:16.032Z,52.36
2023-05-20T21:05:42.907Z,52.55
2023-05-20T21:08:10.069Z,52.52
2023-05-20T21:10:38.301Z,52.59
2023-05-20T21:13:05.448Z,52.73
2023-05-20T21:15:32.223Z,52.74
2023-05-20T21:18:01.162Z,53.24
2023-05-20T21:20:28.283Z,53.35
2023-05-20T21:22:55.196Z,53.56
2023-05-20T21:25:22.075Z,53.55
2023-05-20T21:27:48.864Z,53.77
2023-05-20T21:30:16.564Z,54.03
2023-05-20T21:32:43.674Z,54.18
2023-05-20T21:35:10.688Z,54.32
2023-05-20T21:37:37.531Z,54.46
2023-05-20T21:40:05.003Z,54.94
2023-05-20T21:42:34.241Z,55.26
2023-05-20T21:45:01.283Z,55.37
2023-05-20T21:47:33.270Z,55.36
2023-05-20T21:50:00.622Z,55.85
2023-05-20T21:52:30.049Z,55.66
2023-05-20T21:55:04.075Z,55.83
2023-05-20T21:57:32.937Z,55.87
2023-05-20T22:00:01.073Z,56.13
2023-05-20T22:02:28.149Z,56.13
2023-05-20T22:05:01.342Z,56.44
2023-05-20T22:07:28.244Z,56.56
2023-05-20T22:09:54.987Z,56.74
2023-05-20T22:12:22.044Z,57.03
2023-05-20T22:14:54.078Z,57.20
2023-05-20T22:17:21.760Z,57.37
2023-05-20T22:19:50.000Z,57.43
2023-05-20T22:22:17.161Z,57.88
2023-05-20T22:24:48.280Z,58.11
2023-05-20T22:27:15.207Z,57.81
2023-05-20T22:29:44.699Z,58.46
2023-05-20T22:32:11.555Z,58.36
2023-05-20T22:34:39.391Z,58.89
2023-05-20T22:37:09.295Z,58.94
2023-05-20T22:39:36.586Z,59.18
2023-05-20T22:42:03.476Z,59.47
2023-05-20T22:44:30.340Z,59.48
2023-05-20T22:46:57.343Z,59.51
2023-05-20T22:49:25.154Z,59.90
2023-05-20T22:51:53.137Z,59.83
2023-05-20T22:54:24.563Z,59.99
2023-05-20T22:56:58.256Z,60.35
2023-05-20T22:59:26.110Z,60.35
2023-05-20T23:01:53.382Z,60.33
2023-05-20T23:04:20.231Z,60.70
2023-05-20T23:06:47.192Z,60.87
2023-05-20T23:09:14.220Z,60.79
2023-05-20T23:11:40.911Z,61.12
2023-05-20T23:14:07.829Z,61.38
2023-05-20T23:16:36.408Z,61.79
2023-05-20T23:19:03.599Z,61.94
2023-05-20T23:21:31.888Z,62.32
2023-05-20T23:24:01.355Z,62.24
2023-05-20T23:26:30.046Z,62.30
2023-05-20T23:28:56.910Z,62.49
2023-05-20T23:31:23.765Z,62.79
2023-05-20T23:33:50.642Z,62.97
2023-05-20T23:36:17.690Z,63.13
2023-05-20T23:38:44.980Z,63.14
2023-05-20T23:41:11.903Z,63.17
2023-05-20T23:43:41.296Z,62.87
2023-05-20T23:46:08.258Z,63.24
2023-05-20T23:48:36.159Z,63.35
2023-05-20T23:51:05.608Z,63.25
2023-05-20T23:53:32.646Z,63.33
2023-05-20T23:55:59.334Z,63.66
2023-05-20T23:58:26.330Z,63.74
